sensor_id;sensor_type;location;lat;lon;timestamp;temperature;humidity
32728;DHT22;55292;51.844;19.246;2023-07-28T00:03:06;15.80;99.90
32728;DHT22;55292;51.844;19.246;2023-07-28T00:08:09;15.70;99.90
32728;DHT22;55292;51.844;19.246;2023-07-28T00:13:12;15.70;99.90
32728;DHT22;55292;51.844;19.246;2023-07-28T00:18:15;15.60;99.90
32728;DHT22;55292;51.844;19.246;2023-07-28T00:23:17;15.70;99.90
32728;DHT22;55292;51.844;19.246;2023-07-28T00:28:20;15.60;99.90
32728;DHT22;55292;51.844;19.246;2023-07-28T00:33:23;15.60;99.90
32728;DHT22;55292;51.844;19.246;2023-07-28T00:38:26;15.60;99.90
32728;DHT22;55292;51.844;19.246;2023-07-28T00:43:31;15.50;99.90
32728;DHT22;55292;51.844;19.246;2023-07-28T00:48:34;15.50;99.90
32728;DHT22;55292;51.844;19.246;2023-07-28T00:53:37;15.40;99.90
32728;DHT22;55292;51.844;19.246;2023-07-28T00:58:41;15.40;99.90
32728;DHT22;55292;51.844;19.246;2023-07-28T01:03:44;15.30;99.90
32728;DHT22;55292;51.844;19.246;2023-07-28T01:09:00;15.30;99.90
32728;DHT22;55292;51.844;19.246;2023-07-28T01:14:04;15.30;99.90
32728;DHT22;55292;51.844;19.246;2023-07-28T01:19:07;15.40;99.90
32728;DHT22;55292;51.844;19.246;2023-07-28T01:24:36;15.40;99.90
32728;DHT22;55292;51.844;19.246;2023-07-28T01:29:42;15.40;99.90
32728;DHT22;55292;51.844;19.246;2023-07-28T01:34:45;15.40;99.90
32728;DHT22;55292;51.844;19.246;2023-07-28T01:44:51;15.20;99.90
32728;DHT22;55292;51.844;19.246;2023-07-28T01:49:53;15.20;99.90
32728;DHT22;55292;51.844;19.246;2023-07-28T01:54:56;16.60;99.90
32728;DHT22;55292;51.844;19.246;2023-07-28T01:59:59;15.40;99.90
32728;DHT22;55292;51.844;19.246;2023-07-28T02:05:02;15.30;99.90
32728;DHT22;55292;51.844;19.246;2023-07-28T02:10:05;15.40;99.90
32728;DHT22;55292;51.844;19.246;2023-07-28T02:15:08;15.30;99.90
32728;DHT22;55292;51.844;19.246;2023-07-28T02:20:11;15.50;99.90
32728;DHT22;55292;51.844;19.246;2023-07-28T02:25:15;15.60;99.90
32728;DHT22;55292;51.844;19.246;2023-07-28T02:30:19;15.60;99.90
32728;DHT22;55292;51.844;19.246;2023-07-28T02:35:21;15.60;99.90
32728;DHT22;55292;51.844;19.246;2023-07-28T02:45:29;15.50;99.90
32728;DHT22;55292;51.844;19.246;2023-07-28T02:50:31;15.60;99.90
32728;DHT22;55292;51.844;19.246;2023-07-28T02:55:43;15.60;99.90
32728;DHT22;55292;51.844;19.246;2023-07-28T03:00:46;15.70;99.90
32728;DHT22;55292;51.844;19.246;2023-07-28T03:05:54;15.80;99.90
32728;DHT22;55292;51.844;19.246;2023-07-28T03:11:00;15.80;99.90
32728;DHT22;55292;51.844;19.246;2023-07-28T03:16:04;15.80;99.90
32728;DHT22;55292;51.844;19.246;2023-07-28T03:21:09;15.80;99.90
32728;DHT22;55292;51.844;19.246;2023-07-28T03:26:12;15.90;99.90
32728;DHT22;55292;51.844;19.246;2023-07-28T03:31:15;16.00;99.90
32728;DHT22;55292;51.844;19.246;2023-07-28T03:36:18;16.00;99.90
32728;DHT22;55292;51.844;19.246;2023-07-28T03:41:22;16.00;99.90
32728;DHT22;55292;51.844;19.246;2023-07-28T03:46:24;15.90;99.90
32728;DHT22;55292;51.844;19.246;2023-07-28T03:51:30;15.80;99.90
32728;DHT22;55292;51.844;19.246;2023-07-28T03:56:33;15.50;99.90
32728;DHT22;55292;51.844;19.246;2023-07-28T04:01:36;15.50;99.90
32728;DHT22;55292;51.844;19.246;2023-07-28T04:06:49;15.50;99.90
32728;DHT22;55292;51.844;19.246;2023-07-28T04:11:53;15.40;99.90
32728;DHT22;55292;51.844;19.246;2023-07-28T04:16:55;15.40;99.90
32728;DHT22;55292;51.844;19.246;2023-07-28T04:21:59;15.50;99.90
32728;DHT22;55292;51.844;19.246;2023-07-28T04:32:07;15.10;99.90
32728;DHT22;55292;51.844;19.246;2023-07-28T04:37:10;15.00;99.90
32728;DHT22;55292;51.844;19.246;2023-07-28T04:42:21;15.10;99.90
32728;DHT22;55292;51.844;19.246;2023-07-28T04:47:24;15.00;99.90
32728;DHT22;55292;51.844;19.246;2023-07-28T04:57:48;15.00;99.90
32728;DHT22;55292;51.844;19.246;2023-07-28T05:02:52;15.00;99.90
32728;DHT22;55292;51.844;19.246;2023-07-28T05:07:55;15.10;99.90
32728;DHT22;55292;51.844;19.246;2023-07-28T05:12:58;15.10;99.90
32728;DHT22;55292;51.844;19.246;2023-07-28T05:18:01;15.30;99.90
32728;DHT22;55292;51.844;19.246;2023-07-28T05:23:22;15.40;99.90
32728;DHT22;55292;51.844;19.246;2023-07-28T05:28:25;15.40;99.90
32728;DHT22;55292;51.844;19.246;2023-07-28T05:33:31;15.50;99.90
32728;DHT22;55292;51.844;19.246;2023-07-28T05:38:37;15.90;99.90
32728;DHT22;55292;51.844;19.246;2023-07-28T05:43:40;15.90;99.90
32728;DHT22;55292;51.844;19.246;2023-07-28T05:48:42;15.80;99.90
32728;DHT22;55292;51.844;19.246;2023-07-28T05:53:45;15.80;99.90
32728;DHT22;55292;51.844;19.246;2023-07-28T05:58:48;15.90;99.90
32728;DHT22;55292;51.844;19.246;2023-07-28T06:03:52;16.30;99.90
32728;DHT22;55292;51.844;19.246;2023-07-28T06:08:59;16.70;99.90
32728;DHT22;55292;51.844;19.246;2023-07-28T06:14:02;17.00;99.90
32728;DHT22;55292;51.844;19.246;2023-07-28T06:19:07;17.00;99.90
32728;DHT22;55292;51.844;19.246;2023-07-28T06:24:12;17.10;99.90
32728;DHT22;55292;51.844;19.246;2023-07-28T06:29:15;17.20;99.90
32728;DHT22;55292;51.844;19.246;2023-07-28T06:34:18;17.40;99.90
32728;DHT22;55292;51.844;19.246;2023-07-28T06:39:20;17.60;99.90
32728;DHT22;55292;51.844;19.246;2023-07-28T06:44:23;17.80;99.90
32728;DHT22;55292;51.844;19.246;2023-07-28T06:49:26;17.80;99.90
32728;DHT22;55292;51.844;19.246;2023-07-28T06:54:29;17.60;99.90
32728;DHT22;55292;51.844;19.246;2023-07-28T06:59:34;17.50;99.90
32728;DHT22;55292;51.844;19.246;2023-07-28T07:04:37;17.30;99.90
32728;DHT22;55292;51.844;19.246;2023-07-28T07:09:40;17.30;99.90
32728;DHT22;55292;51.844;19.246;2023-07-28T07:14:43;17.70;99.90
32728;DHT22;55292;51.844;19.246;2023-07-28T07:19:46;17.80;99.90
32728;DHT22;55292;51.844;19.246;2023-07-28T07:24:49;18.20;99.90
32728;DHT22;55292;51.844;19.246;2023-07-28T07:29:52;18.40;99.90
32728;DHT22;55292;51.844;19.246;2023-07-28T07:34:55;18.20;99.90
32728;DHT22;55292;51.844;19.246;2023-07-28T07:40:00;18.20;99.90
32728;DHT22;55292;51.844;19.246;2023-07-28T07:45:04;18.00;99.90
32728;DHT22;55292;51.844;19.246;2023-07-28T07:50:08;18.00;99.90
32728;DHT22;55292;51.844;19.246;2023-07-28T07:55:14;17.70;99.90
32728;DHT22;55292;51.844;19.246;2023-07-28T08:00:16;17.70;99.90
32728;DHT22;55292;51.844;19.246;2023-07-28T08:05:19;17.70;99.90
32728;DHT22;55292;51.844;19.246;2023-07-28T08:10:23;17.70;99.90
32728;DHT22;55292;51.844;19.246;2023-07-28T08:15:26;17.60;99.90
32728;DHT22;55292;51.844;19.246;2023-07-28T08:20:29;17.60;99.90
32728;DHT22;55292;51.844;19.246;2023-07-28T08:25:31;17.60;99.90
32728;DHT22;55292;51.844;19.246;2023-07-28T08:30:35;17.30;99.90
32728;DHT22;55292;51.844;19.246;2023-07-28T08:35:37;17.40;99.90
32728;DHT22;55292;51.844;19.246;2023-07-28T08:40:40;17.30;99.90
32728;DHT22;55292;51.844;19.246;2023-07-28T08:45:43;17.30;99.90
32728;DHT22;55292;51.844;19.246;2023-07-28T08:50:46;17.30;99.90
32728;DHT22;55292;51.844;19.246;2023-07-28T08:55:49;17.40;99.90
32728;DHT22;55292;51.844;19.246;2023-07-28T09:00:52;17.60;99.90
32728;DHT22;55292;51.844;19.246;2023-07-28T09:06:00;17.70;99.90
32728;DHT22;55292;51.844;19.246;2023-07-28T09:11:05;17.70;99.90
32728;DHT22;55292;51.844;19.246;2023-07-28T09:16:20;17.90;99.90
32728;DHT22;55292;51.844;19.246;2023-07-28T09:21:23;17.70;99.90
32728;DHT22;55292;51.844;19.246;2023-07-28T09:26:39;17.80;99.90
32728;DHT22;55292;51.844;19.246;2023-07-28T09:31:43;18.80;99.90
32728;DHT22;55292;51.844;19.246;2023-07-28T09:36:46;18.80;99.90
32728;DHT22;55292;51.844;19.246;2023-07-28T09:41:49;19.30;99.90
32728;DHT22;55292;51.844;19.246;2023-07-28T09:46:54;19.90;99.90
32728;DHT22;55292;51.844;19.246;2023-07-28T09:52:03;20.40;99.90
32728;DHT22;55292;51.844;19.246;2023-07-28T09:57:12;21.60;99.90
32728;DHT22;55292;51.844;19.246;2023-07-28T10:02:17;22.90;99.90
32728;DHT22;55292;51.844;19.246;2023-07-28T10:07:20;23.10;99.90
32728;DHT22;55292;51.844;19.246;2023-07-28T10:12:24;22.90;99.90
32728;DHT22;55292;51.844;19.246;2023-07-28T10:17:35;22.70;99.90
32728;DHT22;55292;51.844;19.246;2023-07-28T10:22:44;21.60;99.90
32728;DHT22;55292;51.844;19.246;2023-07-28T10:27:47;21.60;99.90
32728;DHT22;55292;51.844;19.246;2023-07-28T10:32:54;21.60;99.90
32728;DHT22;55292;51.844;19.246;2023-07-28T10:37:58;21.50;99.90
32728;DHT22;55292;51.844;19.246;2023-07-28T10:43:02;21.50;99.90
32728;DHT22;55292;51.844;19.246;2023-07-28T10:48:07;21.10;99.90
32728;DHT22;55292;51.844;19.246;2023-07-28T10:53:10;21.40;99.90
32728;DHT22;55292;51.844;19.246;2023-07-28T10:58:13;22.50;99.90
32728;DHT22;55292;51.844;19.246;2023-07-28T11:03:16;21.80;99.90
32728;DHT22;55292;51.844;19.246;2023-07-28T11:08:19;21.10;99.90
32728;DHT22;55292;51.844;19.246;2023-07-28T11:13:22;20.90;99.90
32728;DHT22;55292;51.844;19.246;2023-07-28T11:18:41;21.90;99.90
32728;DHT22;55292;51.844;19.246;2023-07-28T11:23:45;22.40;99.90
32728;DHT22;55292;51.844;19.246;2023-07-28T11:28:48;23.50;99.90
32728;DHT22;55292;51.844;19.246;2023-07-28T11:33:51;24.00;99.90
32728;DHT22;55292;51.844;19.246;2023-07-28T11:38:57;24.60;99.90
32728;DHT22;55292;51.844;19.246;2023-07-28T11:44:00;25.50;99.90
32728;DHT22;55292;51.844;19.246;2023-07-28T11:54:18;24.60;99.90
32728;DHT22;55292;51.844;19.246;2023-07-28T11:59:24;23.70;99.90
32728;DHT22;55292;51.844;19.246;2023-07-28T12:04:40;23.20;99.90
32728;DHT22;55292;51.844;19.246;2023-07-28T12:09:49;23.00;99.90
32728;DHT22;55292;51.844;19.246;2023-07-28T12:15:19;23.20;99.90
32728;DHT22;55292;51.844;19.246;2023-07-28T12:20:25;23.70;99.90
32728;DHT22;55292;51.844;19.246;2023-07-28T12:25:29;24.10;99.90
32728;DHT22;55292;51.844;19.246;2023-07-28T12:30:33;23.10;99.90
32728;DHT22;55292;51.844;19.246;2023-07-28T12:35:36;22.60;99.90
32728;DHT22;55292;51.844;19.246;2023-07-28T12:40:42;22.20;99.90
32728;DHT22;55292;51.844;19.246;2023-07-28T12:45:47;21.90;99.90
32728;DHT22;55292;51.844;19.246;2023-07-28T12:50:53;21.80;99.90
32728;DHT22;55292;51.844;19.246;2023-07-28T12:55:59;21.40;99.90
32728;DHT22;55292;51.844;19.246;2023-07-28T13:01:03;21.20;99.90
32728;DHT22;55292;51.844;19.246;2023-07-28T13:06:07;21.20;99.90
32728;DHT22;55292;51.844;19.246;2023-07-28T13:11:10;21.40;99.90
32728;DHT22;55292;51.844;19.246;2023-07-28T13:16:15;21.40;99.90
32728;DHT22;55292;51.844;19.246;2023-07-28T13:21:18;21.30;99.90
32728;DHT22;55292;51.844;19.246;2023-07-28T13:26:21;21.10;99.90
32728;DHT22;55292;51.844;19.246;2023-07-28T13:31:23;21.00;99.90
32728;DHT22;55292;51.844;19.246;2023-07-28T13:36:26;20.70;99.90
32728;DHT22;55292;51.844;19.246;2023-07-28T13:41:29;20.70;99.90
32728;DHT22;55292;51.844;19.246;2023-07-28T13:46:32;20.70;99.90
32728;DHT22;55292;51.844;19.246;2023-07-28T13:51:35;20.90;99.90
32728;DHT22;55292;51.844;19.246;2023-07-28T13:56:40;20.90;99.90
32728;DHT22;55292;51.844;19.246;2023-07-28T14:02:03;21.30;99.90
32728;DHT22;55292;51.844;19.246;2023-07-28T14:07:05;21.80;99.90
32728;DHT22;55292;51.844;19.246;2023-07-28T14:12:09;21.90;99.90
32728;DHT22;55292;51.844;19.246;2023-07-28T14:17:11;21.70;99.90
32728;DHT22;55292;51.844;19.246;2023-07-28T14:22:14;21.80;99.90
32728;DHT22;55292;51.844;19.246;2023-07-28T14:27:17;22.20;99.90
32728;DHT22;55292;51.844;19.246;2023-07-28T14:32:20;22.20;99.90
32728;DHT22;55292;51.844;19.246;2023-07-28T14:37:23;22.50;99.90
32728;DHT22;55292;51.844;19.246;2023-07-28T14:42:26;22.70;99.90
32728;DHT22;55292;51.844;19.246;2023-07-28T14:47:28;22.80;99.90
32728;DHT22;55292;51.844;19.246;2023-07-28T14:52:31;22.80;99.90
32728;DHT22;55292;51.844;19.246;2023-07-28T14:57:34;22.50;99.90
32728;DHT22;55292;51.844;19.246;2023-07-28T15:02:37;22.80;99.90
32728;DHT22;55292;51.844;19.246;2023-07-28T15:07:40;22.70;99.90
32728;DHT22;55292;51.844;19.246;2023-07-28T15:12:43;22.70;99.90
32728;DHT22;55292;51.844;19.246;2023-07-28T15:17:48;22.50;99.90
32728;DHT22;55292;51.844;19.246;2023-07-28T15:22:51;22.20;99.90
32728;DHT22;55292;51.844;19.246;2023-07-28T15:27:53;22.10;99.90
32728;DHT22;55292;51.844;19.246;2023-07-28T15:32:56;21.80;99.90
32728;DHT22;55292;51.844;19.246;2023-07-28T15:38:00;21.40;99.90
32728;DHT22;55292;51.844;19.246;2023-07-28T15:43:04;21.10;99.90
32728;DHT22;55292;51.844;19.246;2023-07-28T15:48:07;21.00;99.90
32728;DHT22;55292;51.844;19.246;2023-07-28T15:53:09;20.70;99.90
32728;DHT22;55292;51.844;19.246;2023-07-28T15:58:12;19.70;99.90
32728;DHT22;55292;51.844;19.246;2023-07-28T16:08:18;18.20;99.90
32728;DHT22;55292;51.844;19.246;2023-07-28T16:13:21;19.00;99.90
32728;DHT22;55292;51.844;19.246;2023-07-28T16:18:24;19.60;99.90
32728;DHT22;55292;51.844;19.246;2023-07-28T16:23:26;19.90;99.90
32728;DHT22;55292;51.844;19.246;2023-07-28T16:28:29;20.50;99.90
32728;DHT22;55292;51.844;19.246;2023-07-28T16:33:32;20.30;99.90
32728;DHT22;55292;51.844;19.246;2023-07-28T16:38:35;20.50;99.90
32728;DHT22;55292;51.844;19.246;2023-07-28T16:43:37;20.60;99.90
32728;DHT22;55292;51.844;19.246;2023-07-28T16:48:40;20.80;99.90
32728;DHT22;55292;51.844;19.246;2023-07-28T16:53:43;20.70;99.90
32728;DHT22;55292;51.844;19.246;2023-07-28T16:58:45;20.60;99.90
32728;DHT22;55292;51.844;19.246;2023-07-28T17:03:48;20.80;99.90
32728;DHT22;55292;51.844;19.246;2023-07-28T17:08:51;20.60;99.90
32728;DHT22;55292;51.844;19.246;2023-07-28T17:13:54;20.20;99.90
32728;DHT22;55292;51.844;19.246;2023-07-28T17:18:56;20.50;99.90
32728;DHT22;55292;51.844;19.246;2023-07-28T17:23:59;21.40;99.90
32728;DHT22;55292;51.844;19.246;2023-07-28T17:29:02;21.70;99.90
32728;DHT22;55292;51.844;19.246;2023-07-28T17:34:05;21.50;99.90
32728;DHT22;55292;51.844;19.246;2023-07-28T17:39:08;20.90;99.90
32728;DHT22;55292;51.844;19.246;2023-07-28T17:44:11;20.40;99.90
32728;DHT22;55292;51.844;19.246;2023-07-28T17:49:13;20.20;99.90
32728;DHT22;55292;51.844;19.246;2023-07-28T17:54:16;19.90;99.90
32728;DHT22;55292;51.844;19.246;2023-07-28T17:59:19;19.80;99.90
32728;DHT22;55292;51.844;19.246;2023-07-28T18:04:21;19.50;99.90
32728;DHT22;55292;51.844;19.246;2023-07-28T18:09:25;19.40;99.90
32728;DHT22;55292;51.844;19.246;2023-07-28T18:14:27;19.20;99.90
32728;DHT22;55292;51.844;19.246;2023-07-28T18:19:30;18.90;99.90
32728;DHT22;55292;51.844;19.246;2023-07-28T18:24:36;18.60;99.90
32728;DHT22;55292;51.844;19.246;2023-07-28T18:29:41;18.40;99.90
32728;DHT22;55292;51.844;19.246;2023-07-28T18:34:44;18.20;99.90
32728;DHT22;55292;51.844;19.246;2023-07-28T18:39:47;18.00;99.90
32728;DHT22;55292;51.844;19.246;2023-07-28T18:44:50;17.80;99.90
32728;DHT22;55292;51.844;19.246;2023-07-28T18:49:52;17.90;99.90
32728;DHT22;55292;51.844;19.246;2023-07-28T18:54:55;17.80;99.90
32728;DHT22;55292;51.844;19.246;2023-07-28T18:59:58;17.50;99.90
32728;DHT22;55292;51.844;19.246;2023-07-28T19:05:00;17.40;99.90
32728;DHT22;55292;51.844;19.246;2023-07-28T19:10:04;17.30;99.90
32728;DHT22;55292;51.844;19.246;2023-07-28T19:15:07;17.20;99.90
32728;DHT22;55292;51.844;19.246;2023-07-28T19:20:10;17.10;99.90
32728;DHT22;55292;51.844;19.246;2023-07-28T19:25:13;16.90;99.90
32728;DHT22;55292;51.844;19.246;2023-07-28T19:30:16;16.70;99.90
32728;DHT22;55292;51.844;19.246;2023-07-28T19:35:20;16.50;99.90
32728;DHT22;55292;51.844;19.246;2023-07-28T19:40:23;16.40;99.90
32728;DHT22;55292;51.844;19.246;2023-07-28T19:45:28;16.20;99.90
32728;DHT22;55292;51.844;19.246;2023-07-28T19:50:31;16.30;99.90
32728;DHT22;55292;51.844;19.246;2023-07-28T19:55:48;16.30;99.90
32728;DHT22;55292;51.844;19.246;2023-07-28T20:00:51;16.30;99.90
32728;DHT22;55292;51.844;19.246;2023-07-28T20:05:54;16.30;99.90
32728;DHT22;55292;51.844;19.246;2023-07-28T20:10:56;16.00;99.90
32728;DHT22;55292;51.844;19.246;2023-07-28T20:15:59;15.90;99.90
32728;DHT22;55292;51.844;19.246;2023-07-28T20:21:02;16.00;99.90
32728;DHT22;55292;51.844;19.246;2023-07-28T20:26:07;15.90;99.90
32728;DHT22;55292;51.844;19.246;2023-07-28T20:31:09;15.90;99.90
32728;DHT22;55292;51.844;19.246;2023-07-28T20:36:14;16.00;99.90
32728;DHT22;55292;51.844;19.246;2023-07-28T20:41:17;16.00;99.90
32728;DHT22;55292;51.844;19.246;2023-07-28T20:46:20;16.10;99.90
32728;DHT22;55292;51.844;19.246;2023-07-28T20:51:22;16.00;99.90
32728;DHT22;55292;51.844;19.246;2023-07-28T20:56:25;16.00;99.90
32728;DHT22;55292;51.844;19.246;2023-07-28T21:01:28;16.00;99.90
32728;DHT22;55292;51.844;19.246;2023-07-28T21:06:31;15.90;99.90
32728;DHT22;55292;51.844;19.246;2023-07-28T21:11:33;16.00;99.90
32728;DHT22;55292;51.844;19.246;2023-07-28T21:16:36;16.00;99.90
32728;DHT22;55292;51.844;19.246;2023-07-28T21:21:39;15.90;99.90
32728;DHT22;55292;51.844;19.246;2023-07-28T21:26:42;15.70;99.90
32728;DHT22;55292;51.844;19.246;2023-07-28T21:31:45;15.70;99.90
32728;DHT22;55292;51.844;19.246;2023-07-28T21:36:48;15.90;99.90
32728;DHT22;55292;51.844;19.246;2023-07-28T21:41:52;15.80;99.90
32728;DHT22;55292;51.844;19.246;2023-07-28T21:46:58;15.80;99.90
32728;DHT22;55292;51.844;19.246;2023-07-28T21:52:00;15.90;99.90
32728;DHT22;55292;51.844;19.246;2023-07-28T21:57:03;15.90;99.90
32728;DHT22;55292;51.844;19.246;2023-07-28T22:02:06;15.80;99.90
32728;DHT22;55292;51.844;19.246;2023-07-28T22:07:11;15.80;99.90
32728;DHT22;55292;51.844;19.246;2023-07-28T22:12:18;15.60;99.90
32728;DHT22;55292;51.844;19.246;2023-07-28T22:17:21;15.60;99.90
32728;DHT22;55292;51.844;19.246;2023-07-28T22:22:24;15.60;99.90
32728;DHT22;55292;51.844;19.246;2023-07-28T22:27:26;15.50;99.90
32728;DHT22;55292;51.844;19.246;2023-07-28T22:32:29;15.40;99.90
32728;DHT22;55292;51.844;19.246;2023-07-28T22:37:32;15.40;99.90
32728;DHT22;55292;51.844;19.246;2023-07-28T22:42:35;15.40;99.90
32728;DHT22;55292;51.844;19.246;2023-07-28T22:47:38;15.40;99.90
32728;DHT22;55292;51.844;19.246;2023-07-28T22:52:40;15.30;99.90
32728;DHT22;55292;51.844;19.246;2023-07-28T22:57:44;15.50;99.90
32728;DHT22;55292;51.844;19.246;2023-07-28T23:02:46;15.40;99.90
32728;DHT22;55292;51.844;19.246;2023-07-28T23:07:49;15.60;99.90
32728;DHT22;55292;51.844;19.246;2023-07-28T23:12:52;15.60;99.90
32728;DHT22;55292;51.844;19.246;2023-07-28T23:17:56;16.00;99.90
32728;DHT22;55292;51.844;19.246;2023-07-28T23:23:01;16.00;99.90
32728;DHT22;55292;51.844;19.246;2023-07-28T23:33:08;16.10;99.90
32728;DHT22;55292;51.844;19.246;2023-07-28T23:38:13;16.30;99.90
32728;DHT22;55292;51.844;19.246;2023-07-28T23:43:15;16.30;99.90
32728;DHT22;55292;51.844;19.246;2023-07-28T23:48:18;16.30;99.90
32728;DHT22;55292;51.844;19.246;2023-07-28T23:53:21;16.40;99.90
32728;DHT22;55292;51.844;19.246;2023-07-28T23:58:24;16.40;99.90
